createdAt,value
2023-05-09T00:00:46.619Z,100157.13
2023-05-09T00:03:14.408Z,100154.56
2023-05-09T00:05:42.023Z,100157.72
2023-05-09T00:08:09.397Z,100159.66
2023-05-09T00:10:36.333Z,100157.00
2023-05-09T00:13:03.307Z,100158.06
2023-05-09T00:15:30.599Z,100164.25
2023-05-09T00:17:57.617Z,100166.53
2023-05-09T00:20:24.547Z,100165.09
2023-05-09T00:22:51.683Z,100172.56
2023-05-09T00:25:18.546Z,100164.00
2023-05-09T00:27:45.420Z,100172.44
2023-05-09T00:30:12.538Z,100173.06
2023-05-09T00:32:41.415Z,100171.00
2023-05-09T00:35:10.188Z,100172.94
2023-05-09T00:37:37.233Z,100180.78
2023-05-09T00:40:06.346Z,100177.75
2023-05-09T00:42:33.641Z,100171.16
2023-05-09T00:45:00.603Z,100166.28
2023-05-09T00:47:28.981Z,100174.50
2023-05-09T00:49:58.209Z,100168.94
2023-05-09T00:52:26.219Z,100162.44
2023-05-09T00:54:54.520Z,100169.22
2023-05-09T00:57:22.738Z,100165.94
2023-05-09T00:59:50.264Z,100164.38
2023-05-09T01:02:18.410Z,100158.09
2023-05-09T01:04:46.347Z,100159.91
2023-05-09T01:07:52.688Z,100164.75
2023-05-09T01:10:31.743Z,100164.38
2023-05-09T01:13:26.164Z,100160.50
2023-05-09T01:16:11.372Z,100170.78
2023-05-09T01:18:50.063Z,100165.19
2023-05-09T01:21:21.629Z,100164.00
2023-05-09T01:24:13.268Z,100164.13
2023-05-09T01:27:20.803Z,100161.00
2023-05-09T01:29:51.091Z,100165.34
2023-05-09T01:32:23.102Z,100164.59
2023-05-09T01:34:51.951Z,100164.00
2023-05-09T01:37:22.346Z,100159.63
2023-05-09T01:39:53.339Z,100158.94
2023-05-09T01:42:21.521Z,100162.91
2023-05-09T01:44:49.856Z,100164.25
2023-05-09T01:47:19.830Z,100163.06
2023-05-09T01:49:48.051Z,100166.66
2023-05-09T01:52:17.834Z,100168.97
2023-05-09T01:54:46.084Z,100176.09
2023-05-09T01:57:14.533Z,100172.09
2023-05-09T01:59:44.751Z,100165.91
2023-05-09T02:02:12.352Z,100169.69
2023-05-09T02:04:41.920Z,100174.88
2023-05-09T02:07:09.650Z,100168.81
2023-05-09T02:09:36.701Z,100175.94
2023-05-09T02:12:05.134Z,100165.56
2023-05-09T02:14:32.152Z,100175.34
2023-05-09T02:17:06.593Z,100176.78
2023-05-09T02:19:35.406Z,100175.13
2023-05-09T02:22:04.953Z,100169.81
2023-05-09T02:24:34.364Z,100177.53
2023-05-09T02:27:02.903Z,100175.34
2023-05-09T02:29:44.497Z,100175.94
2023-05-09T02:32:15.470Z,100175.81
2023-05-09T02:34:43.956Z,100179.22
2023-05-09T02:37:11.656Z,100185.84
2023-05-09T02:39:38.740Z,100182.25
2023-05-09T02:42:08.447Z,100183.44
2023-05-09T02:44:35.424Z,100190.31
2023-05-09T02:47:03.698Z,100195.16
2023-05-09T02:49:32.725Z,100197.56
2023-05-09T02:52:01.686Z,100192.97
2023-05-09T02:54:28.718Z,100197.91
2023-05-09T02:56:55.778Z,100186.34
2023-05-09T02:59:22.789Z,100194.56
2023-05-09T03:01:50.321Z,100181.50
2023-05-09T03:04:18.216Z,100181.94
2023-05-09T03:06:45.169Z,100189.91
2023-05-09T03:09:13.051Z,100199.81
2023-05-09T03:11:39.907Z,100206.66
2023-05-09T03:14:08.528Z,100216.78
2023-05-09T03:16:35.667Z,100222.22
2023-05-09T03:19:03.947Z,100232.09
2023-05-09T03:21:32.162Z,100235.59
2023-05-09T03:23:59.540Z,100235.84
2023-05-09T03:26:26.646Z,100238.06
2023-05-09T03:28:54.720Z,100232.69
2023-05-09T03:31:21.718Z,100238.00
2023-05-09T03:33:48.610Z,100243.25
2023-05-09T03:36:16.454Z,100247.16
2023-05-09T03:38:44.368Z,100253.41
2023-05-09T03:41:13.258Z,100258.38
2023-05-09T03:43:40.255Z,100263.50
2023-05-09T03:46:07.118Z,100257.91
2023-05-09T03:48:35.260Z,100251.00
2023-05-09T03:51:02.956Z,100265.69
2023-05-09T03:53:32.466Z,100267.06
2023-05-09T03:55:59.343Z,100261.97
2023-05-09T03:58:27.590Z,100263.34
2023-05-09T04:00:55.504Z,100259.44
2023-05-09T04:03:24.977Z,100265.47
2023-05-09T04:05:54.094Z,100260.56
2023-05-09T04:08:35.009Z,100268.22
2023-05-09T04:11:04.011Z,100266.13
2023-05-09T04:13:31.902Z,100273.59
2023-05-09T04:16:02.046Z,100271.66
2023-05-09T04:18:32.084Z,100284.84
2023-05-09T04:20:58.910Z,100282.81
2023-05-09T04:23:26.689Z,100276.31
2023-05-09T04:25:57.030Z,100280.88
2023-05-09T04:28:24.862Z,100278.31
2023-05-09T04:30:52.348Z,100274.38
2023-05-09T04:33:21.377Z,100283.16
2023-05-09T04:35:49.536Z,100278.50
2023-05-09T04:38:16.777Z,100278.78
2023-05-09T04:40:45.072Z,100278.41
2023-05-09T04:43:12.074Z,100272.66
2023-05-09T04:45:38.955Z,100269.88
2023-05-09T04:48:06.706Z,100279.16
2023-05-09T04:50:33.664Z,100280.81
2023-05-09T04:53:00.614Z,100279.34
2023-05-09T04:55:27.535Z,100285.25
2023-05-09T04:57:55.747Z,100279.31
2023-05-09T05:00:22.915Z,100287.72
2023-05-09T05:02:49.898Z,100285.50
2023-05-09T05:05:17.692Z,100284.56
2023-05-09T05:07:44.861Z,100281.72
2023-05-09T05:10:18.320Z,100286.81
2023-05-09T05:12:49.604Z,100264.03
2023-05-09T05:15:17.693Z,100281.50
2023-05-09T05:17:46.267Z,100289.50
2023-05-09T05:20:13.642Z,100293.47
2023-05-09T05:22:44.676Z,100286.47
2023-05-09T05:25:12.510Z,100293.78
2023-05-09T05:27:41.015Z,100296.19
2023-05-09T05:30:10.645Z,100298.97
2023-05-09T05:32:37.631Z,100302.38
2023-05-09T05:35:05.106Z,100296.03
2023-05-09T05:37:35.487Z,100297.13
2023-05-09T05:40:02.953Z,100301.78
2023-05-09T05:42:30.837Z,100310.81
2023-05-09T05:44:58.080Z,100308.03
2023-05-09T05:47:25.153Z,100310.47
2023-05-09T05:49:52.545Z,100320.25
2023-05-09T05:52:19.992Z,100312.09
2023-05-09T05:54:46.796Z,100321.09
2023-05-09T05:57:13.749Z,100311.13
2023-05-09T05:59:40.695Z,100320.81
2023-05-09T06:02:08.162Z,100310.84
2023-05-09T06:04:35.470Z,100315.59
2023-05-09T06:07:02.393Z,100319.81
2023-05-09T06:09:29.240Z,100318.50
2023-05-09T06:11:56.085Z,100324.97
2023-05-09T06:14:22.957Z,100319.78
2023-05-09T06:16:50.065Z,100314.88
2023-05-09T06:19:16.986Z,100317.59
2023-05-09T06:21:44.141Z,100322.72
2023-05-09T06:24:16.936Z,100320.47
2023-05-09T06:26:51.020Z,100321.94
2023-05-09T06:29:17.834Z,100331.25
2023-05-09T06:31:44.694Z,100333.06
2023-05-09T06:34:11.558Z,100328.72
2023-05-09T06:36:38.416Z,100334.09
2023-05-09T06:39:05.308Z,100333.09
2023-05-09T06:41:32.174Z,100338.09
2023-05-09T06:43:59.095Z,100335.34
2023-05-09T06:46:26.464Z,100336.91
2023-05-09T06:48:53.405Z,100328.09
2023-05-09T06:51:20.436Z,100324.03
2023-05-09T06:53:47.237Z,100330.16
2023-05-09T06:56:14.231Z,100328.06
2023-05-09T06:58:41.118Z,100327.94
2023-05-09T07:01:08.140Z,100331.44
2023-05-09T07:03:35.028Z,100326.50
2023-05-09T07:06:01.868Z,100331.44
2023-05-09T07:08:28.951Z,100327.72
2023-05-09T07:10:55.997Z,100325.50
2023-05-09T07:13:23.078Z,100327.31
2023-05-09T07:15:50.113Z,100326.31
2023-05-09T07:18:16.927Z,100330.44
2023-05-09T07:20:43.833Z,100336.94
2023-05-09T07:23:10.689Z,100334.16
2023-05-09T07:25:37.578Z,100344.72
2023-05-09T07:28:04.726Z,100341.44
2023-05-09T07:30:31.737Z,100342.84
2023-05-09T07:32:58.567Z,100348.25
2023-05-09T07:35:26.540Z,100350.16
2023-05-09T07:37:53.469Z,100350.94
2023-05-09T07:40:20.527Z,100352.97
2023-05-09T07:42:50.089Z,100351.75
2023-05-09T07:45:18.696Z,100346.88
2023-05-09T07:47:46.242Z,100356.22
2023-05-09T07:50:13.137Z,100352.28
2023-05-09T07:52:39.975Z,100356.94
2023-05-09T07:55:07.587Z,100354.28
2023-05-09T07:57:34.479Z,100353.31
2023-05-09T08:00:01.230Z,100352.53
2023-05-09T08:02:28.156Z,100360.56
2023-05-09T08:04:54.962Z,100355.09
2023-05-09T08:07:21.825Z,100361.59
2023-05-09T08:09:48.636Z,100353.53
2023-05-09T08:12:15.597Z,100355.59
2023-05-09T08:14:42.426Z,100359.31
2023-05-09T08:17:09.426Z,100347.72
2023-05-09T08:19:36.233Z,100344.97
2023-05-09T08:22:03.275Z,100345.09
2023-05-09T08:24:30.710Z,100346.00
2023-05-09T08:26:57.565Z,100340.00
2023-05-09T08:29:24.417Z,100343.25
2023-05-09T08:31:51.650Z,100338.41
2023-05-09T08:34:18.509Z,100341.78
2023-05-09T08:36:47.044Z,100341.19
2023-05-09T08:39:14.152Z,100354.97
2023-05-09T08:41:42.486Z,100350.00
2023-05-09T08:44:10.166Z,100341.75
2023-05-09T08:46:39.812Z,100346.03
2023-05-09T08:49:07.435Z,100341.50
2023-05-09T08:51:36.096Z,100346.69
2023-05-09T08:54:03.613Z,100351.84
2023-05-09T08:56:31.914Z,100349.88
2023-05-09T08:58:59.253Z,100344.06
2023-05-09T09:01:29.094Z,100348.81
2023-05-09T09:03:56.497Z,100349.34
2023-05-09T09:06:25.879Z,100343.88
2023-05-09T09:08:55.985Z,100349.53
2023-05-09T09:11:23.261Z,100341.59
2023-05-09T09:13:54.344Z,100338.25
2023-05-09T09:16:23.353Z,100335.84
2023-05-09T09:18:55.435Z,100339.84
2023-05-09T09:21:23.712Z,100342.19
2023-05-09T09:23:52.682Z,100345.69
2023-05-09T09:26:19.468Z,100339.31
2023-05-09T09:28:46.326Z,100345.47
2023-05-09T09:31:28.534Z,100341.50
2023-05-09T09:34:02.273Z,100339.53
2023-05-09T09:36:30.625Z,100338.31
2023-05-09T09:39:04.813Z,100343.88
2023-05-09T09:41:39.097Z,100337.41
2023-05-09T09:44:19.226Z,100339.22
2023-05-09T09:46:54.525Z,100335.31
2023-05-09T09:49:24.173Z,100337.91
2023-05-09T09:51:56.314Z,100340.91
2023-05-09T09:54:26.272Z,100341.06
2023-05-09T09:56:54.759Z,100342.25
2023-05-09T09:59:25.011Z,100339.41
2023-05-09T10:02:05.926Z,100339.47
2023-05-09T10:04:37.294Z,100336.31
2023-05-09T10:07:06.453Z,100339.63
2023-05-09T10:09:35.327Z,100329.69
2023-05-09T10:12:04.859Z,100323.19
2023-05-09T10:14:35.546Z,100329.78
2023-05-09T10:17:05.081Z,100326.88
2023-05-09T10:19:33.373Z,100323.88
2023-05-09T10:22:06.068Z,100321.44
2023-05-09T10:24:44.925Z,100319.38
2023-05-09T10:27:13.049Z,100321.81
2023-05-09T10:29:56.343Z,100321.25
2023-05-09T10:32:38.696Z,100328.56
2023-05-09T10:35:08.429Z,100323.09
2023-05-09T10:37:35.814Z,100319.16
2023-05-09T10:40:04.440Z,100311.69
2023-05-09T10:42:31.939Z,100309.56
2023-05-09T10:44:58.898Z,100314.22
2023-05-09T10:47:28.098Z,100318.16
2023-05-09T10:49:55.461Z,100321.97
2023-05-09T10:52:22.965Z,100321.28
2023-05-09T10:55:04.357Z,100321.88
2023-05-09T10:57:32.226Z,100317.66
2023-05-09T11:00:00.612Z,100319.06
2023-05-09T11:02:32.507Z,100328.59
2023-05-09T11:05:15.068Z,100322.41
2023-05-09T11:07:43.417Z,100320.16
2023-05-09T11:10:18.165Z,100316.50
2023-05-09T11:12:59.175Z,100311.13
2023-05-09T11:15:27.923Z,100307.63
2023-05-09T11:18:10.175Z,100309.91
2023-05-09T11:20:44.239Z,100316.13
2023-05-09T11:23:17.412Z,100315.81
2023-05-09T11:25:46.857Z,100310.63
2023-05-09T11:28:30.636Z,100312.19
2023-05-09T11:31:12.839Z,100311.47
2023-05-09T11:33:40.831Z,100308.09
2023-05-09T11:36:25.191Z,100309.09
2023-05-09T11:39:08.379Z,100306.84
2023-05-09T11:41:46.877Z,100312.19
2023-05-09T11:44:21.179Z,100308.09
2023-05-09T11:46:49.444Z,100309.63
2023-05-09T11:49:17.263Z,100315.81
2023-05-09T11:51:44.202Z,100312.31
2023-05-09T11:54:12.314Z,100311.47
2023-05-09T11:56:41.638Z,100306.97
2023-05-09T11:59:08.705Z,100311.47
2023-05-09T12:01:36.804Z,100298.53
2023-05-09T12:04:07.936Z,100296.59
2023-05-09T12:06:34.882Z,100293.63
2023-05-09T12:09:01.820Z,100275.78
2023-05-09T12:11:32.518Z,100271.72
2023-05-09T12:13:59.426Z,100274.09
2023-05-09T12:16:26.462Z,100279.03
2023-05-09T12:18:54.941Z,100272.72
2023-05-09T12:21:22.467Z,100274.44
2023-05-09T12:23:51.798Z,100272.50
2023-05-09T12:26:22.208Z,100270.97
2023-05-09T12:28:49.357Z,100282.25
2023-05-09T12:31:17.243Z,100277.28
2023-05-09T12:33:44.257Z,100283.84
2023-05-09T12:36:12.586Z,100271.75
2023-05-09T12:38:39.637Z,100280.03
2023-05-09T12:41:29.917Z,100277.47
2023-05-09T12:43:57.980Z,100271.44
2023-05-09T12:46:25.114Z,100275.97
2023-05-09T12:48:52.625Z,100276.88
2023-05-09T12:51:20.977Z,100273.84
2023-05-09T12:53:48.572Z,100274.09
2023-05-09T12:56:18.628Z,100286.50
2023-05-09T12:58:56.173Z,100274.34
2023-05-09T13:01:31.929Z,100281.94
2023-05-09T13:04:04.157Z,100283.59
2023-05-09T13:06:31.074Z,100278.44
2023-05-09T13:09:00.440Z,100279.50
2023-05-09T13:11:28.064Z,100269.69
2023-05-09T13:13:55.817Z,100265.13
2023-05-09T13:16:22.868Z,100269.38
2023-05-09T13:18:49.707Z,100272.63
2023-05-09T13:21:16.508Z,100277.34
2023-05-09T13:23:44.577Z,100265.25
2023-05-09T13:26:11.567Z,100274.81
2023-05-09T13:28:38.409Z,100274.09
2023-05-09T13:31:05.357Z,100272.97
2023-05-09T13:33:32.372Z,100267.38
2023-05-09T13:35:59.272Z,100273.25
2023-05-09T13:38:30.857Z,100277.00
2023-05-09T13:40:58.452Z,100268.22
2023-05-09T13:43:25.255Z,100278.88
2023-05-09T13:45:52.115Z,100268.25
2023-05-09T13:48:18.919Z,100266.56
2023-05-09T13:50:46.732Z,100270.53
2023-05-09T13:53:13.579Z,100277.88
2023-05-09T13:55:40.373Z,100275.75
2023-05-09T13:58:07.704Z,100270.44
2023-05-09T14:00:34.642Z,100283.59
2023-05-09T14:03:04.303Z,100275.38
2023-05-09T14:05:34.824Z,100274.16
2023-05-09T14:08:01.884Z,100287.69
2023-05-09T14:10:29.136Z,100288.72
2023-05-09T14:12:57.114Z,100281.19
2023-05-09T14:15:23.994Z,100277.94
2023-05-09T14:17:51.047Z,100274.69
2023-05-09T14:20:18.386Z,100280.41
2023-05-09T14:22:45.266Z,100275.53
2023-05-09T14:25:12.572Z,100279.56
2023-05-09T14:27:39.423Z,100280.28
2023-05-09T14:30:06.872Z,100279.75
2023-05-09T14:32:33.802Z,100277.41
2023-05-09T14:35:00.827Z,100276.69
2023-05-09T14:37:28.945Z,100273.97
2023-05-09T14:39:55.802Z,100274.13
2023-05-09T14:42:22.663Z,100279.09
2023-05-09T14:44:50.053Z,100272.44
2023-05-09T14:47:17.116Z,100264.66
2023-05-09T14:49:44.329Z,100267.94
2023-05-09T14:52:11.318Z,100261.38
2023-05-09T14:54:38.182Z,100265.66
2023-05-09T14:57:07.081Z,100264.81
2023-05-09T14:59:36.645Z,100264.63
2023-05-09T15:02:04.006Z,100264.81
2023-05-09T15:04:31.424Z,100254.22
2023-05-09T15:06:59.175Z,100258.72
2023-05-09T15:09:26.906Z,100263.06
2023-05-09T15:11:54.903Z,100261.81
2023-05-09T15:14:22.131Z,100261.22
2023-05-09T15:16:49.023Z,100254.22
2023-05-09T15:19:15.882Z,100262.31
2023-05-09T15:21:42.687Z,100264.28
2023-05-09T15:24:09.589Z,100262.31
2023-05-09T15:26:36.495Z,100258.50
2023-05-09T15:29:03.377Z,100258.63
2023-05-09T15:31:33.208Z,100258.91
2023-05-09T15:34:00.981Z,100268.31
2023-05-09T15:36:30.106Z,100260.00
2023-05-09T15:38:57.181Z,100258.41
2023-05-09T15:41:24.516Z,100257.81
2023-05-09T15:43:51.946Z,100260.72
2023-05-09T15:46:19.076Z,100275.97
2023-05-09T15:48:46.136Z,100266.44
2023-05-09T15:51:13.912Z,100278.00
2023-05-09T15:53:40.872Z,100268.72
2023-05-09T15:56:08.516Z,100263.09
2023-05-09T15:58:35.359Z,100271.06
2023-05-09T16:01:05.847Z,100277.47
2023-05-09T16:03:32.891Z,100274.44
2023-05-09T16:06:00.180Z,100273.22
2023-05-09T16:08:27.533Z,100271.03
2023-05-09T16:10:54.490Z,100273.28
2023-05-09T16:13:21.508Z,100272.91
2023-05-09T16:15:50.189Z,100274.09
2023-05-09T16:18:17.053Z,100283.78
2023-05-09T16:20:44.199Z,100284.56
2023-05-09T16:23:11.677Z,100283.72
2023-05-09T16:25:38.834Z,100283.94
2023-05-09T16:28:07.333Z,100286.09
2023-05-09T16:30:34.500Z,100293.41
2023-05-09T16:33:01.426Z,100290.25
2023-05-09T16:35:28.924Z,100293.41
2023-05-09T16:37:55.787Z,100296.91
2023-05-09T16:40:22.710Z,100302.19
2023-05-09T16:42:49.752Z,100299.78
2023-05-09T16:45:16.694Z,100308.38
2023-05-09T16:47:43.616Z,100321.56
2023-05-09T16:50:11.073Z,100320.09
2023-05-09T16:52:37.901Z,100324.06
2023-05-09T16:55:05.123Z,100318.97
2023-05-09T16:57:31.949Z,100321.91
2023-05-09T16:59:58.768Z,100314.78
2023-05-09T17:02:25.710Z,100318.59
2023-05-09T17:04:52.693Z,100313.31
2023-05-09T17:07:20.168Z,100321.63
2023-05-09T17:09:48.663Z,100321.84
2023-05-09T17:12:18.118Z,100316.78
2023-05-09T17:14:48.354Z,100320.72
2023-05-09T17:17:15.624Z,100317.31
2023-05-09T17:19:42.873Z,100321.91
2023-05-09T17:22:10.144Z,100323.25
2023-05-09T17:24:37.248Z,100319.22
2023-05-09T17:27:04.988Z,100319.81
2023-05-09T17:29:31.917Z,100321.19
2023-05-09T17:32:01.940Z,100325.22
2023-05-09T17:34:29.149Z,100323.03
2023-05-09T17:36:56.464Z,100322.97
2023-05-09T17:39:23.954Z,100321.63
2023-05-09T17:41:51.172Z,100323.84
2023-05-09T17:44:18.047Z,100326.25
2023-05-09T17:46:45.018Z,100321.34
2023-05-09T17:49:14.183Z,100330.38
2023-05-09T17:51:41.440Z,100328.63
2023-05-09T17:54:08.330Z,100325.91
2023-05-09T17:56:35.286Z,100331.84
2023-05-09T17:59:02.275Z,100329.19
2023-05-09T18:01:30.038Z,100335.47
2023-05-09T18:03:57.899Z,100342.28
2023-05-09T18:06:26.173Z,100351.25
2023-05-09T18:08:52.999Z,100350.75
2023-05-09T18:11:19.864Z,100353.28
2023-05-09T18:13:47.336Z,100353.56
2023-05-09T18:16:14.144Z,100353.13
2023-05-09T18:18:41.054Z,100358.03
2023-05-09T18:21:09.629Z,100362.00
2023-05-09T18:23:36.506Z,100363.97
2023-05-09T18:29:20.449Z,100369.00
2023-05-09T18:31:47.309Z,100365.94
2023-05-09T18:34:14.280Z,100376.91
2023-05-09T18:36:41.235Z,100366.53
2023-05-09T18:39:09.033Z,100371.63
2023-05-09T18:41:36.087Z,100371.44
2023-05-09T18:44:04.163Z,100371.69
2023-05-09T18:46:33.713Z,100364.75
2023-05-09T18:49:01.193Z,100371.59
2023-05-09T18:51:28.039Z,100377.25
2023-05-09T18:53:54.935Z,100379.66
2023-05-09T18:56:22.249Z,100375.84
2023-05-09T18:58:52.139Z,100375.13
2023-05-09T19:01:19.505Z,100376.81
2023-05-09T19:03:53.569Z,100381.63
2023-05-09T19:06:20.783Z,100380.69
2023-05-09T19:08:48.217Z,100384.16
2023-05-09T19:11:15.110Z,100383.97
2023-05-09T19:13:48.639Z,100391.94
2023-05-09T19:16:17.276Z,100386.03
2023-05-09T19:18:44.233Z,100393.34
2023-05-09T19:21:11.156Z,100383.25
2023-05-09T19:23:38.295Z,100387.19
2023-05-09T19:26:05.108Z,100386.63
2023-05-09T19:28:31.980Z,100392.78
2023-05-09T19:30:59.136Z,100389.41
2023-05-09T19:33:25.987Z,100386.25
2023-05-09T19:35:52.791Z,100388.88
2023-05-09T19:38:19.549Z,100380.94
2023-05-09T19:40:46.470Z,100375.63
2023-05-09T19:43:13.249Z,100388.38
2023-05-09T19:45:40.085Z,100384.09
2023-05-09T19:48:07.219Z,100384.22
2023-05-09T19:50:34.063Z,100384.66
2023-05-09T19:53:01.197Z,100382.44
2023-05-09T19:55:28.058Z,100381.38
2023-05-09T19:57:55.248Z,100381.34
2023-05-09T20:00:22.236Z,100379.03
2023-05-09T20:02:49.836Z,100382.13
2023-05-09T20:05:16.835Z,100376.19
2023-05-09T20:07:43.750Z,100380.72
2023-05-09T20:10:12.981Z,100376.81
2023-05-09T20:12:39.843Z,100377.88
2023-05-09T20:15:08.121Z,100372.66
2023-05-09T20:17:34.989Z,100379.47
2023-05-09T20:20:01.941Z,100383.78
2023-05-09T20:22:28.817Z,100380.47
2023-05-09T20:24:55.771Z,100369.03
2023-05-09T20:27:23.690Z,100369.75
2023-05-09T20:29:50.650Z,100364.28
2023-05-09T20:32:17.636Z,100373.50
2023-05-09T20:34:44.506Z,100368.31
2023-05-09T20:37:12.061Z,100368.72
2023-05-09T20:39:38.908Z,100373.78
2023-05-09T20:42:06.671Z,100370.13
2023-05-09T20:44:33.910Z,100365.28
2023-05-09T20:47:00.843Z,100366.63
2023-05-09T20:49:27.629Z,100365.78
2023-05-09T20:51:55.362Z,100359.09
2023-05-09T20:54:24.119Z,100361.84
2023-05-09T20:56:51.066Z,100359.59
2023-05-09T20:59:18.281Z,100353.88
2023-05-09T21:01:45.141Z,100354.53
2023-05-09T21:04:11.929Z,100352.72
2023-05-09T21:06:38.777Z,100356.16
2023-05-09T21:09:06.316Z,100353.38
2023-05-09T21:11:33.275Z,100360.59
2023-05-09T21:14:00.160Z,100363.19
2023-05-09T21:16:28.242Z,100364.41
2023-05-09T21:18:55.137Z,100364.69
2023-05-09T21:21:22.436Z,100371.66
2023-05-09T21:23:49.309Z,100368.78
2023-05-09T21:26:16.634Z,100367.44
2023-05-09T21:28:43.549Z,100370.69
2023-05-09T21:31:11.459Z,100374.81
2023-05-09T21:33:38.516Z,100367.38
2023-05-09T21:36:06.267Z,100370.25
2023-05-09T21:38:33.091Z,100375.25
2023-05-09T21:40:59.978Z,100371.22
2023-05-09T21:43:27.586Z,100359.63
2023-05-09T21:45:55.578Z,100367.00
2023-05-09T21:48:22.530Z,100365.88
2023-05-09T21:50:49.367Z,100361.69
2023-05-09T21:53:16.174Z,100359.03
2023-05-09T21:55:42.995Z,100359.75
2023-05-09T21:58:09.807Z,100364.09
2023-05-09T22:00:36.617Z,100370.25
2023-05-09T22:03:03.546Z,100367.09
2023-05-09T22:05:30.675Z,100365.63
2023-05-09T22:07:57.499Z,100364.00
2023-05-09T22:10:24.500Z,100350.34
2023-05-09T22:12:51.387Z,100360.94
2023-05-09T22:15:18.187Z,100362.41
2023-05-09T22:17:45.093Z,100359.09
2023-05-09T22:20:12.651Z,100365.78
2023-05-09T22:22:39.445Z,100353.94
2023-05-09T22:25:06.675Z,100351.97
2023-05-09T22:27:33.496Z,100356.88
2023-05-09T22:30:00.406Z,100355.06
2023-05-09T22:32:27.374Z,100353.63
2023-05-09T22:34:54.332Z,100357.72
2023-05-09T22:37:21.743Z,100354.06
2023-05-09T22:39:48.609Z,100353.47
2023-05-09T22:42:16.196Z,100348.44
2023-05-09T22:44:43.242Z,100346.31
2023-05-09T22:47:10.384Z,100346.63
2023-05-09T22:49:37.552Z,100339.56
2023-05-09T22:52:04.684Z,100338.50
2023-05-09T22:54:31.610Z,100336.94
2023-05-09T22:56:58.552Z,100330.78
2023-05-09T22:59:25.367Z,100329.38
2023-05-09T23:01:53.651Z,100333.56
2023-05-09T23:04:20.725Z,100327.69
2023-05-09T23:06:47.629Z,100315.91
2023-05-09T23:09:14.511Z,100316.59
2023-05-09T23:11:41.360Z,100314.97
2023-05-09T23:14:08.305Z,100311.66
2023-05-09T23:16:35.475Z,100307.78
2023-05-09T23:19:02.639Z,100305.13
2023-05-09T23:21:29.464Z,100306.53
2023-05-09T23:23:56.459Z,100305.47
2023-05-09T23:26:23.330Z,100300.00
2023-05-09T23:28:50.229Z,100301.88
2023-05-09T23:31:17.116Z,100298.38
2023-05-09T23:33:44.166Z,100299.78
2023-05-09T23:36:11.319Z,100296.88
2023-05-09T23:38:38.322Z,100298.28
2023-05-09T23:41:05.180Z,100292.16
2023-05-09T23:43:31.968Z,100297.16
2023-05-09T23:45:59.419Z,100294.31
2023-05-09T23:48:26.671Z,100290.25
2023-05-09T23:50:53.484Z,100294.69
2023-05-09T23:53:20.323Z,100288.56
2023-05-09T23:55:47.105Z,100293.84
2023-05-09T23:58:14.177Z,100287.50
